Time;durP1;ratioP1;P1;durP2;ratioP2;P2;SDS_P1;SDS_P2;PMS_P1;PMS_P2;Temp;Humidity;BMP_temperature;BMP_pressure;BME280_temperature;BME280_humidity;BME280_pressure;Samples;Min_cycle;Max_cycle;Signal;HPM_P1;HPM_P2
2023/07/03 00:01:25;;;;;;;10.00;4.57;;;19.80;81.20;;;20.25;nan;100236.03;4992154;28;20642;-66
2023/07/03 00:03:52;;;;;;;12.17;4.00;;;19.80;81.50;;;20.25;nan;100241.31;4993433;28;20610;-67
2023/07/03 00:06:20;;;;;;;7.00;2.67;;;19.80;81.50;;;20.22;nan;100238.19;4994136;28;21054;-66
2023/07/03 00:08:47;;;;;;;5.43;3.50;;;19.80;81.50;;;20.17;nan;100237.91;4992544;28;20642;-69
2023/07/03 00:11:14;;;;;;;5.70;3.23;;;19.80;81.70;;;20.06;nan;100237.31;4993273;28;20965;-65
2023/07/03 00:13:41;;;;;;;6.37;3.70;;;19.70;81.90;;;20.05;nan;100234.84;4992929;28;20606;-69
2023/07/03 00:16:08;;;;;;;5.57;2.97;;;19.60;82.30;;;20.07;nan;100238.16;4976836;28;21229;-64
2023/07/03 00:18:35;;;;;;;7.30;3.03;;;19.60;82.30;;;20.00;nan;100232.75;4994583;28;20634;-65
2023/07/03 00:21:02;;;;;;;7.40;3.60;;;19.60;82.60;;;19.93;nan;100228.34;4993431;28;20625;-65
2023/07/03 00:23:29;;;;;;;5.90;3.10;;;19.50;82.70;;;19.82;nan;100232.25;4991456;28;20676;-66
2023/07/03 00:25:56;;;;;;;5.57;3.40;;;19.40;83.30;;;19.78;nan;100228.31;4992636;28;21291;-65
2023/07/03 00:28:23;;;;;;;5.70;3.70;;;19.40;83.60;;;19.77;nan;100231.97;4991530;28;21220;-68
2023/07/03 00:30:50;;;;;;;4.50;2.80;;;19.40;84.00;;;19.78;nan;100217.72;4993911;28;20641;-66
2023/07/03 00:33:17;;;;;;;9.40;3.60;;;19.40;84.10;;;19.75;nan;100228.69;4992458;28;20625;-68
2023/07/03 00:35:44;;;;;;;6.00;3.27;;;19.30;84.30;;;19.71;nan;100224.75;5007695;28;21215;-65
2023/07/03 00:38:11;;;;;;;6.27;3.23;;;19.30;84.60;;;19.67;nan;100234.03;5011526;28;20676;-65
2023/07/03 00:40:38;;;;;;;10.30;4.60;;;19.20;84.90;;;19.66;nan;100235.03;4986853;28;20637;-67
2023/07/03 00:43:05;;;;;;;7.80;3.53;;;19.20;85.00;;;19.66;nan;100236.84;4995792;28;20604;-67
2023/07/03 00:45:33;;;;;;;6.10;3.13;;;19.20;85.10;;;19.66;nan;100235.03;5003382;28;20649;-66
2023/07/03 00:48:00;;;;;;;5.93;3.13;;;19.30;85.10;;;19.64;nan;100231.75;5005592;28;20641;-65
2023/07/03 00:50:28;;;;;;;5.93;3.30;;;19.30;85.40;;;19.55;nan;100234.66;5004037;28;21101;-66
2023/07/03 00:53:04;;;;;;;3.97;2.40;;;19.10;85.70;;;19.48;nan;100228.41;5004846;28;21169;-66
2023/07/03 00:55:32;;;;;;;4.30;2.60;;;19.10;86.00;;;19.48;nan;100225.75;4979326;28;20685;-65
2023/07/03 00:57:59;;;;;;;8.20;3.30;;;19.10;86.10;;;19.45;nan;100226.09;4991939;28;21268;-66
2023/07/03 01:00:39;;;;;;;4.97;3.23;;;19.10;86.30;;;19.43;nan;100226.28;4990825;28;20657;-67
2023/07/03 01:03:16;;;;;;;5.30;3.37;;;19.00;86.40;;;19.37;nan;100234.09;4992138;28;20642;-67
2023/07/03 01:05:49;;;;;;;7.07;3.43;;;19.00;86.80;;;19.32;nan;100231.94;4988712;28;20628;-66
2023/07/03 01:08:17;;;;;;;4.00;2.93;;;18.90;87.00;;;19.27;nan;100234.31;4973849;28;20641;-69
2023/07/03 01:10:45;;;;;;;9.47;3.53;;;18.90;87.10;;;19.21;nan;100232.34;4956384;28;20635;-67
2023/07/03 01:13:16;;;;;;;6.63;3.20;;;18.80;87.60;;;19.11;nan;100229.13;4964537;28;21194;-66
2023/07/03 01:15:45;;;;;;;7.57;3.40;;;18.70;88.20;;;19.07;nan;100226.00;4982423;28;20625;-67
2023/07/03 01:18:14;;;;;;;10.20;3.60;;;18.70;88.50;;;19.02;nan;100222.22;4995525;28;20661;-65
2023/07/03 01:20:53;;;;;;;8.17;3.60;;;18.70;88.70;;;19.01;nan;100220.59;4994691;28;21051;-64
2023/07/03 01:23:56;;;;;;;6.60;3.00;;;18.60;89.20;;;18.96;nan;100221.09;4989221;28;20645;-66
2023/07/03 01:26:26;;;;;;;5.40;3.07;;;18.60;89.50;;;18.92;nan;100224.25;4990407;28;20666;-66
2023/07/03 01:28:59;;;;;;;5.47;3.30;;;18.50;89.90;;;18.86;nan;100231.09;4954607;28;20690;-66
2023/07/03 01:31:29;;;;;;;4.43;2.60;;;18.50;90.10;;;18.79;nan;100216.91;4995735;28;21298;-66
2023/07/03 01:33:59;;;;;;;4.03;2.83;;;18.40;90.40;;;18.75;nan;100222.69;4977054;28;20645;-69
2023/07/03 01:36:28;;;;;;;5.40;3.23;;;18.40;90.70;;;18.73;nan;100224.69;4990025;28;20681;-68
2023/07/03 01:38:56;;;;;;;6.37;3.60;;;18.30;90.70;;;18.63;nan;100222.28;4972783;28;20618;-68
2023/07/03 01:41:23;;;;;;;9.40;3.43;;;18.30;91.10;;;18.61;nan;100223.44;4991886;28;20630;-67
2023/07/03 01:43:52;;;;;;;3.10;2.63;;;18.20;91.30;;;18.57;nan;100228.22;4987341;28;20718;-66
2023/07/03 01:46:19;;;;;;;6.93;3.60;;;18.20;91.60;;;18.53;nan;100221.63;4974505;28;20684;-67
2023/07/03 01:48:46;;;;;;;7.70;4.00;;;18.10;91.80;;;18.51;nan;100224.44;5007452;28;20668;-70
2023/07/03 01:51:33;;;;;;;5.73;3.40;;;18.10;92.10;;;18.44;nan;100220.03;4978977;28;20634;-66
2023/07/03 01:54:23;;;;;;;6.80;3.80;;;18.10;92.40;;;18.33;nan;100210.63;4973723;28;20629;-66
2023/07/03 01:56:52;;;;;;;4.27;2.90;;;18.00;93.10;;;18.30;nan;100213.59;4975456;28;20686;-66
2023/07/03 01:59:24;;;;;;;5.57;3.47;;;17.90;93.10;;;18.26;nan;100214.94;4971354;28;20627;-65
2023/07/03 02:02:23;;;;;;;6.77;3.37;;;17.90;93.40;;;18.25;nan;100215.91;4985669;28;20630;-66
2023/07/03 02:05:11;;;;;;;8.70;4.13;;;17.90;93.70;;;18.28;nan;100212.94;4966270;28;20638;-66
2023/07/03 02:07:40;;;;;;;4.37;3.03;;;17.90;94.00;;;18.33;nan;100213.28;4989781;28;20647;-67
2023/07/03 02:10:08;;;;;;;3.27;2.87;;;17.90;94.10;;;18.32;nan;100205.50;4990217;28;20638;-68
2023/07/03 02:12:35;;;;;;;4.30;3.07;;;17.90;94.20;;;18.31;nan;100209.16;4998951;28;20658;-70
2023/07/03 02:15:04;;;;;;;5.00;3.30;;;17.90;94.40;;;18.32;nan;100214.25;4987801;28;21182;-67
2023/07/03 02:17:31;;;;;;;5.07;3.40;;;17.90;94.50;;;18.35;nan;100210.44;4972903;28;20677;-70
2023/07/03 02:19:58;;;;;;;5.17;3.53;;;18.00;94.70;;;18.41;nan;100220.34;4990003;28;20630;-65
2023/07/03 02:22:25;;;;;;;4.50;3.40;;;18.00;94.60;;;18.49;nan;100226.44;4973997;28;20610;-65
2023/07/03 02:24:52;;;;;;;6.60;3.83;;;18.10;94.60;;;18.55;nan;100233.69;4988810;28;20639;-65
2023/07/03 02:27:19;;;;;;;3.63;2.83;;;18.20;94.70;;;18.62;nan;100233.00;4973732;28;21073;-65
2023/07/03 02:29:49;;;;;;;6.93;3.33;;;18.20;94.70;;;18.66;nan;100224.56;4983691;28;21158;-66
2023/07/03 02:32:17;;;;;;;4.13;2.63;;;18.20;94.70;;;18.67;nan;100226.22;4988369;28;20649;-70
2023/07/03 02:34:44;;;;;;;5.83;3.73;;;18.30;94.70;;;18.70;nan;100230.34;4994342;28;20626;-65
2023/07/03 02:37:13;;;;;;;5.80;3.10;;;18.30;94.70;;;18.72;nan;100226.50;4984327;28;20694;-66
2023/07/03 02:39:40;;;;;;;4.53;3.43;;;18.30;94.80;;;18.75;nan;100222.69;4983391;28;21044;-68
2023/07/03 02:42:07;;;;;;;7.03;3.43;;;18.30;94.80;;;18.76;nan;100227.81;4958618;28;21162;-68
2023/07/03 02:44:34;;;;;;;5.70;3.23;;;18.40;94.80;;;18.76;nan;100230.44;4981388;28;20658;-66
2023/07/03 02:47:02;;;;;;;4.30;3.27;;;18.40;94.80;;;18.76;nan;100241.03;4989931;28;20662;-64
2023/07/03 02:49:30;;;;;;;4.77;3.00;;;18.40;95.10;;;18.73;nan;100240.56;4991903;28;20638;-65
2023/07/03 02:51:57;;;;;;;5.20;3.23;;;18.40;95.20;;;18.71;nan;100246.00;4989228;28;21150;-69
2023/07/03 02:54:25;;;;;;;4.20;3.13;;;18.30;95.40;;;18.68;nan;100237.59;4989496;28;20638;-66
2023/07/03 02:56:52;;;;;;;5.30;3.20;;;18.30;95.60;;;18.64;nan;100231.84;4979227;28;20686;-67
2023/07/03 02:59:18;;;;;;;6.10;3.50;;;18.30;95.80;;;18.64;nan;100238.94;4991616;28;20634;-65
2023/07/03 03:01:45;;;;;;;5.23;3.60;;;18.30;96.00;;;18.63;nan;100237.28;4990563;28;20633;-65
2023/07/03 03:04:16;;;;;;;5.37;3.10;;;18.30;96.10;;;18.61;nan;100232.19;4990420;28;20630;-66
2023/07/03 03:06:45;;;;;;;6.27;3.67;;;18.20;96.50;;;18.58;nan;100235.16;4990150;28;20662;-66
2023/07/03 03:09:12;;;;;;;6.57;3.53;;;18.20;96.30;;;18.59;nan;100231.53;4988800;28;20618;-66
2023/07/03 03:11:39;;;;;;;6.93;3.57;;;18.20;96.40;;;18.56;nan;100240.63;4988571;28;20629;-67
2023/07/03 03:14:06;;;;;;;7.27;3.90;;;18.20;96.50;;;18.53;nan;100238.31;4989840;28;20614;-67
2023/07/03 03:16:33;;;;;;;4.37;3.07;;;18.20;96.60;;;18.48;nan;100230.06;4990512;28;21257;-66
2023/07/03 03:19:01;;;;;;;5.30;3.17;;;18.10;96.60;;;18.47;nan;100236.34;4988275;28;20637;-68
2023/07/03 03:21:28;;;;;;;7.43;3.53;;;18.10;96.80;;;18.46;nan;100237.34;4987148;28;20626;-66
2023/07/03 03:23:55;;;;;;;12.23;3.80;;;18.10;97.00;;;18.43;nan;100240.31;4976493;28;21021;-66
2023/07/03 03:26:22;;;;;;;7.80;3.37;;;18.10;97.20;;;18.45;nan;100240.16;4985525;28;20829;-68
2023/07/03 03:28:49;;;;;;;8.60;4.00;;;18.00;97.30;;;18.46;nan;100232.06;4991992;28;20613;-67
2023/07/03 03:31:17;;;;;;;4.50;2.90;;;18.10;97.50;;;18.45;nan;100226.94;4996398;28;20629;-68
2023/07/03 03:33:44;;;;;;;5.07;2.97;;;18.10;97.60;;;18.44;nan;100230.59;4992661;28;20649;-65
2023/07/03 03:36:11;;;;;;;5.77;3.40;;;18.00;97.90;;;18.44;nan;100230.59;4992132;28;20669;-66
2023/07/03 03:38:38;;;;;;;7.83;3.40;;;18.10;98.00;;;18.44;nan;100234.03;4993371;28;20678;-66
2023/07/03 03:41:05;;;;;;;5.80;3.30;;;18.10;98.10;;;18.40;nan;100245.09;4993362;28;20638;-66
2023/07/03 03:43:32;;;;;;;3.27;2.47;;;18.00;98.30;;;18.43;nan;100242.13;4991609;28;20606;-67
2023/07/03 03:46:01;;;;;;;5.17;3.00;;;18.00;98.40;;;18.44;nan;100249.88;4994897;28;20669;-66
2023/07/03 03:48:30;;;;;;;3.50;2.70;;;18.10;98.60;;;18.40;nan;100243.28;4992704;28;20649;-66
2023/07/03 03:50:57;;;;;;;5.70;3.40;;;18.00;98.70;;;18.40;nan;100240.63;4993755;28;20630;-67
2023/07/03 03:53:24;;;;;;;8.17;3.20;;;18.00;98.90;;;18.41;nan;100238.81;4991885;28;20646;-67
2023/07/03 03:55:52;;;;;;;5.03;3.37;;;18.00;99.00;;;18.36;nan;100249.88;4994116;28;20633;-69
2023/07/03 03:58:21;;;;;;;6.60;3.20;;;18.00;99.10;;;18.37;nan;100258.66;4991758;28;20677;-67
2023/07/03 04:00:50;;;;;;;10.80;3.50;;;18.00;99.30;;;18.38;nan;100258.47;4988080;28;20624;-67
2023/07/03 04:03:18;;;;;;;7.63;3.30;;;18.00;99.30;;;18.37;nan;100261.28;4990885;28;20648;-66
2023/07/03 04:05:45;;;;;;;3.23;2.30;;;18.00;99.40;;;18.38;nan;100263.75;4981012;28;20606;-66
2023/07/03 04:08:12;;;;;;;8.50;3.67;;;18.00;99.50;;;18.35;nan;100264.09;5002518;28;20645;-66
2023/07/03 04:10:42;;;;;;;5.30;3.33;;;18.00;99.60;;;18.35;nan;100271.19;4994774;28;20625;-66
2023/07/03 04:13:13;;;;;;;7.60;3.67;;;18.00;99.70;;;18.34;nan;100267.72;4993349;28;21326;-68
2023/07/03 04:15:52;;;;;;;6.10;3.13;;;18.00;99.80;;;18.33;nan;100267.91;4994002;28;20618;-67
2023/07/03 04:18:20;;;;;;;4.67;3.10;;;18.00;99.80;;;18.32;nan;100275.00;4988308;28;20665;-67
2023/07/03 04:20:48;;;;;;;7.43;3.37;;;17.90;99.90;;;18.33;nan;100275.81;4993442;28;21186;-67
2023/07/03 04:23:16;;;;;;;4.67;3.23;;;17.90;99.90;;;18.37;nan;100279.78;4989735;28;20646;-66
2023/07/03 04:25:43;;;;;;;7.40;2.80;;;18.00;99.90;;;18.36;nan;100278.94;4987419;28;20631;-65
2023/07/03 04:28:12;;;;;;;4.93;2.90;;;18.00;99.90;;;18.38;nan;100276.97;4973607;28;20599;-66
2023/07/03 04:30:39;;;;;;;3.70;2.70;;;18.00;99.90;;;18.40;nan;100288.19;4983982;28;20712;-66
2023/07/03 04:33:06;;;;;;;4.43;3.03;;;18.00;99.90;;;18.38;nan;100278.78;4993630;28;20646;-67
2023/07/03 04:35:34;;;;;;;4.07;2.70;;;18.00;99.90;;;18.37;nan;100285.06;5001541;28;20695;-66
2023/07/03 04:38:01;;;;;;;6.00;3.57;;;18.00;99.90;;;18.38;nan;100279.59;4977817;28;20700;-65
2023/07/03 04:40:29;;;;;;;6.43;3.07;;;18.00;99.90;;;18.41;nan;100281.91;4996714;28;20642;-69
2023/07/03 04:42:57;;;;;;;10.43;3.77;;;18.00;99.90;;;18.40;nan;100272.31;4991068;28;20645;-65
2023/07/03 04:45:26;;;;;;;5.77;3.40;;;18.00;99.90;;;18.44;nan;100283.44;4991098;28;20621;-67
2023/07/03 04:47:53;;;;;;;5.23;3.00;;;18.10;99.90;;;18.48;nan;100290.81;5002697;28;20661;-66
2023/07/03 04:50:24;;;;;;;11.60;3.63;;;18.10;99.90;;;18.50;nan;100294.16;5012102;28;20648;-66
2023/07/03 04:52:53;;;;;;;6.47;3.30;;;18.10;99.90;;;18.57;nan;100296.91;5001660;28;20638;-66
2023/07/03 04:55:22;;;;;;;7.07;3.50;;;18.20;99.90;;;18.62;nan;100301.69;4992014;28;20621;-69
2023/07/03 04:57:49;;;;;;;3.17;2.33;;;18.20;99.90;;;18.65;nan;100301.38;4998756;28;20674;-68
2023/07/03 05:00:19;;;;;;;5.57;3.07;;;18.30;99.90;;;18.72;nan;100311.06;4998648;28;21038;-67
2023/07/03 05:02:48;;;;;;;3.00;2.43;;;18.30;99.90;;;18.80;nan;100313.72;4966265;28;20705;-64
2023/07/03 05:05:18;;;;;;;4.17;2.87;;;18.40;99.90;;;18.88;nan;100307.56;4969059;28;21048;-67
2023/07/03 05:07:45;;;;;;;6.40;3.23;;;18.40;99.90;;;18.92;nan;100314.16;4984810;28;20669;-68
2023/07/03 05:10:15;;;;;;;6.07;3.70;;;18.50;99.90;;;18.99;nan;100318.59;4983716;28;21014;-67
2023/07/03 05:12:44;;;;;;;10.00;3.80;;;18.60;99.90;;;19.04;nan;100316.25;4990878;28;20633;-67
2023/07/03 05:15:14;;;;;;;5.90;3.33;;;18.60;99.90;;;19.13;nan;100323.16;4990437;28;20645;-70
2023/07/03 05:17:41;;;;;;;6.40;2.73;;;18.80;99.90;;;19.19;nan;100319.81;4995339;28;20700;-69
2023/07/03 05:20:12;;;;;;;8.60;3.10;;;18.80;99.80;;;19.27;nan;100329.53;4986554;28;20637;-66
2023/07/03 05:22:42;;;;;;;10.87;3.27;;;18.80;99.80;;;19.34;nan;100333.16;4991268;28;21281;-71
2023/07/03 05:25:11;;;;;;;10.80;3.63;;;19.00;99.80;;;19.42;nan;100333.13;4987941;28;20623;-66
2023/07/03 05:27:39;;;;;;;8.57;3.83;;;19.00;99.90;;;19.47;nan;100330.78;4991387;28;21288;-67
2023/07/03 05:30:07;;;;;;;2.67;2.43;;;19.00;99.80;;;19.51;nan;100331.22;4991464;28;20657;-66
2023/07/03 05:32:35;;;;;;;6.73;3.43;;;19.10;99.70;;;19.56;nan;100327.09;4991672;28;20635;-66
2023/07/03 05:35:04;;;;;;;5.70;3.17;;;19.10;99.40;;;19.59;nan;100342.59;4992125;28;21221;-65
2023/07/03 05:37:32;;;;;;;7.20;3.10;;;19.10;99.30;;;19.61;nan;100345.91;4979858;28;20666;-68
2023/07/03 05:39:59;;;;;;;4.57;2.90;;;19.20;99.10;;;19.67;nan;100347.84;4998673;28;20673;-66
2023/07/03 05:42:26;;;;;;;7.20;3.30;;;19.20;98.90;;;19.70;nan;100347.50;4981381;28;20629;-66
2023/07/03 05:44:53;;;;;;;5.90;3.10;;;19.30;98.70;;;19.73;nan;100348.97;4990467;28;20599;-68
2023/07/03 05:47:20;;;;;;;3.57;2.43;;;19.30;98.40;;;19.77;nan;100348.44;4995532;28;21041;-66
2023/07/03 05:49:49;;;;;;;3.90;2.80;;;19.30;98.40;;;19.79;nan;100346.44;5004721;28;20634;-68
2023/07/03 05:52:16;;;;;;;4.20;2.93;;;19.40;98.30;;;19.84;nan;100346.75;4980950;28;20638;-67
2023/07/03 05:54:43;;;;;;;3.90;2.67;;;19.40;98.30;;;19.90;nan;100353.16;4990853;28;20630;-66
2023/07/03 05:57:11;;;;;;;8.07;4.00;;;19.50;98.30;;;19.93;nan;100358.09;4990034;28;20666;-67
2023/07/03 05:59:40;;;;;;;10.37;2.93;;;19.50;98.20;;;19.96;nan;100363.84;4990669;28;21061;-65
2023/07/03 06:02:13;;;;;;;5.37;3.20;;;19.50;98.10;;;19.99;nan;100367.97;4989777;28;20645;-65
2023/07/03 06:04:41;;;;;;;5.03;2.50;;;19.50;98.00;;;19.98;nan;100371.63;4989590;28;21032;-68
2023/07/03 06:07:10;;;;;;;2.40;2.17;;;19.50;97.90;;;20.02;nan;100372.91;4989502;28;21260;-67
2023/07/03 06:09:37;;;;;;;4.50;2.40;;;19.60;98.00;;;20.06;nan;100369.72;4991573;28;20984;-65
2023/07/03 06:12:05;;;;;;;4.43;2.13;;;19.60;98.00;;;20.13;nan;100383.09;4991468;28;21253;-70
2023/07/03 06:14:33;;;;;;;4.17;2.40;;;19.70;97.90;;;20.17;nan;100381.72;4987697;28;20657;-68
2023/07/03 06:17:00;;;;;;;2.27;2.17;;;19.70;97.50;;;20.21;nan;100380.41;4991562;28;20673;-66
2023/07/03 06:19:28;;;;;;;4.40;2.57;;;19.70;97.20;;;20.25;nan;100388.84;4989204;28;20755;-66
2023/07/03 06:21:55;;;;;;;3.70;2.20;;;19.80;97.30;;;20.25;nan;100392.31;4991552;28;20614;-66
2023/07/03 06:24:23;;;;;;;3.13;2.50;;;19.80;97.70;;;20.28;nan;100394.59;4973298;28;20626;-67
2023/07/03 06:26:51;;;;;;;7.40;2.70;;;19.90;97.70;;;20.27;nan;100392.97;4992354;28;21067;-68
2023/07/03 06:29:18;;;;;;;2.83;2.60;;;19.90;97.20;;;20.24;nan;100398.59;4989716;28;20649;-69
2023/07/03 06:31:47;;;;;;;3.10;1.63;;;19.80;96.30;;;20.24;nan;100403.06;4993519;28;20631;-67
2023/07/03 06:34:14;;;;;;;3.80;2.40;;;19.80;96.20;;;20.25;nan;100407.38;4990050;28;21015;-66
2023/07/03 06:36:41;;;;;;;3.73;2.83;;;19.80;96.20;;;20.28;nan;100407.00;4989786;28;21612;-66
2023/07/03 06:39:09;;;;;;;11.80;2.30;;;19.80;96.20;;;20.31;nan;100409.31;4989147;28;20681;-66
2023/07/03 06:41:36;;;;;;;3.77;2.53;;;19.90;96.20;;;20.37;nan;100421.84;4991300;28;20622;-67
2023/07/03 06:44:05;;;;;;;2.80;2.30;;;19.90;96.10;;;20.39;nan;100422.50;5000587;28;20701;-67
2023/07/03 06:46:33;;;;;;;8.87;2.60;;;20.00;96.10;;;20.44;nan;100425.44;4983808;28;20666;-65
2023/07/03 06:49:00;;;;;;;1.97;1.83;;;20.00;96.00;;;20.52;nan;100420.06;4985850;28;20634;-67
2023/07/03 06:51:28;;;;;;;3.43;2.40;;;20.10;95.80;;;20.56;nan;100413.41;4982451;28;20642;-66
2023/07/03 06:53:55;;;;;;;3.37;1.97;;;20.10;95.70;;;20.54;nan;100421.53;4981330;28;20660;-70
2023/07/03 06:56:23;;;;;;;3.20;1.87;;;20.10;95.40;;;20.54;nan;100416.25;4985022;28;21484;-66
2023/07/03 06:58:51;;;;;;;3.27;1.80;;;20.10;95.10;;;20.53;nan;100419.09;4976002;28;20678;-65
2023/07/03 07:01:23;;;;;;;2.77;1.73;;;20.10;94.60;;;20.53;nan;100425.19;4979788;28;20635;-66
2023/07/03 07:03:51;;;;;;;2.20;1.70;;;20.10;94.20;;;20.55;nan;100425.03;4983494;28;20685;-73
2023/07/03 07:06:22;;;;;;;1.83;1.73;;;20.10;93.90;;;20.61;nan;100426.94;4977198;28;21076;-65
2023/07/03 07:08:50;;;;;;;2.70;1.80;;;20.20;93.60;;;20.70;nan;100417.91;4983741;28;20650;-67
2023/07/03 07:11:25;;;;;;;2.60;1.43;;;20.20;93.70;;;20.82;nan;100429.72;4990159;28;20613;-70
2023/07/03 07:13:55;;;;;;;4.03;1.80;;;20.30;92.90;;;20.99;nan;100425.06;5007581;28;20613;-69
2023/07/03 07:16:25;;;;;;;1.17;1.17;;;20.50;92.60;;;21.16;nan;100431.88;4999217;28;21041;-67
2023/07/03 07:18:57;;;;;;;7.67;1.80;;;20.70;92.30;;;21.27;nan;100424.31;4994296;28;20653;-65
2023/07/03 07:21:24;;;;;;;1.70;1.33;;;20.80;91.90;;;21.40;nan;100426.31;4990717;28;20634;-64
2023/07/03 07:23:57;;;;;;;2.90;1.27;;;20.90;91.70;;;21.50;nan;100427.66;4986290;28;20649;-68
2023/07/03 07:26:30;;;;;;;3.70;1.40;;;21.00;91.00;;;21.53;nan;100429.91;4984564;28;20653;-67
2023/07/03 07:28:58;;;;;;;3.63;1.63;;;21.10;90.60;;;21.56;nan;100424.25;4998139;28;20642;-67
2023/07/03 07:31:28;;;;;;;3.93;1.20;;;21.10;90.20;;;21.56;nan;100426.09;4986532;28;20621;-67
2023/07/03 07:33:55;;;;;;;11.60;1.80;;;21.10;90.10;;;21.56;nan;100416.28;5009295;28;20621;-65
2023/07/03 07:36:25;;;;;;;1.20;1.20;;;21.10;89.70;;;21.54;nan;100420.97;5000815;28;20669;-64
2023/07/03 07:38:53;;;;;;;4.13;2.23;;;21.10;89.80;;;21.58;nan;100421.41;4970055;28;20746;-65
2023/07/03 07:41:24;;;;;;;3.13;2.20;;;21.10;90.10;;;21.60;nan;100422.03;4980423;28;20634;-65
2023/07/03 07:43:53;;;;;;;1.30;1.20;;;21.10;89.80;;;21.58;nan;100422.25;4987930;28;21205;-68
2023/07/03 07:46:25;;;;;;;6.97;1.07;;;21.20;89.20;;;21.59;nan;100407.94;4995356;28;20669;-65
2023/07/03 07:48:52;;;;;;;1.20;0.93;;;21.10;89.10;;;21.59;nan;100405.28;4995148;28;21053;-68
2023/07/03 07:51:19;;;;;;;1.77;1.10;;;21.20;88.40;;;21.59;nan;100407.94;4988226;28;20642;-66
2023/07/03 07:53:46;;;;;;;3.50;1.60;;;21.20;88.40;;;21.52;nan;100412.38;4982754;28;20635;-66
2023/07/03 07:56:13;;;;;;;1.10;1.10;;;21.10;88.50;;;21.58;nan;100405.47;4988936;28;20677;-67
2023/07/03 07:58:40;;;;;;;1.10;1.10;;;21.10;87.40;;;21.63;nan;100400.44;4989325;28;20665;-64
2023/07/03 08:01:11;;;;;;;1.80;0.80;;;21.20;87.10;;;21.70;nan;100413.78;4989276;28;21271;-65
2023/07/03 08:03:40;;;;;;;1.23;1.10;;;21.20;86.80;;;21.69;nan;100409.47;4988575;28;20638;-65
2023/07/03 08:06:08;;;;;;;7.03;1.50;;;21.20;86.70;;;21.67;nan;100406.19;4991992;28;20656;-65
2023/07/03 08:08:36;;;;;;;1.10;1.00;;;21.20;85.90;;;21.61;nan;100405.91;4989344;28;20638;-67
2023/07/03 08:11:06;;;;;;;0.87;0.87;;;21.20;86.10;;;21.62;nan;100407.56;4984476;28;20610;-69
2023/07/03 08:13:35;;;;;;;2.20;1.63;;;21.20;86.10;;;21.63;nan;100409.25;4987098;28;21152;-69
2023/07/03 08:16:03;;;;;;;1.80;1.23;;;21.20;86.20;;;21.72;nan;100406.47;4992517;28;20657;-70
2023/07/03 08:18:30;;;;;;;4.13;2.27;;;21.30;86.10;;;21.75;nan;100411.38;4993537;28;20781;-66
2023/07/03 08:20:57;;;;;;;1.63;1.53;;;21.30;85.70;;;21.76;nan;100413.03;4982485;28;21190;-66
2023/07/03 08:23:24;;;;;;;2.57;1.00;;;21.30;85.30;;;21.76;nan;100415.69;4991530;28;20629;-68
2023/07/03 08:25:54;;;;;;;1.77;1.57;;;21.30;84.90;;;21.74;nan;100399.13;4989786;28;20638;-66
2023/07/03 08:28:22;;;;;;;2.40;1.13;;;21.30;84.80;;;21.85;nan;100412.75;4967351;28;21194;-69
2023/07/03 08:30:49;;;;;;;1.27;1.17;;;21.40;85.10;;;21.94;nan;100408.97;5011552;28;20616;-68
2023/07/03 08:33:16;;;;;;;1.17;1.00;;;21.50;84.60;;;21.96;nan;100409.59;4995389;28;20647;-69
2023/07/03 08:35:44;;;;;;;2.85;1.65;;;21.50;84.20;;;22.00;nan;100413.53;4971861;28;20836;-66
2023/07/03 08:38:13;;;;;;;3.20;1.60;;;21.50;84.40;;;21.95;nan;100417.78;5004253;28;20321;-67
2023/07/03 08:40:42;;;;;;;1.00;1.00;;;21.50;84.20;;;21.90;nan;100412.19;5000678;28;20646;-67
2023/07/03 08:43:16;;;;;;;2.83;1.10;;;21.50;84.40;;;21.83;nan;100417.44;4990609;28;20611;-68
2023/07/03 08:45:48;;;;;;;0.90;0.90;;;21.40;84.30;;;21.80;nan;100419.63;4993385;28;20629;-67
2023/07/03 08:48:25;;;;;;;3.73;1.30;;;21.40;84.30;;;21.79;nan;100420.63;4994353;28;21229;-69
2023/07/03 08:50:58;;;;;;;6.00;1.40;;;21.30;84.60;;;21.75;nan;100417.53;4991975;28;20610;-66
2023/07/03 08:53:36;;;;;;;2.50;1.10;;;21.30;84.40;;;21.74;nan;100423.84;4988748;28;20626;-69
2023/07/03 08:56:26;;;;;;;0.80;0.80;;;21.30;84.30;;;21.63;nan;100432.31;4971231;28;20671;-70
2023/07/03 08:58:56;;;;;;;1.50;1.40;;;21.20;84.60;;;21.51;nan;100425.81;4988592;28;21363;-68
2023/07/03 09:01:41;;;;;;;3.17;1.20;;;21.10;85.40;;;21.45;nan;100421.25;4990434;28;20612;-67
2023/07/03 09:04:38;;;;;;;2.00;1.20;;;21.00;86.00;;;21.51;nan;100420.50;4990323;28;20620;-69
2023/07/03 09:07:25;;;;;;;1.10;1.10;;;21.00;86.00;;;21.58;nan;100424.88;4990371;28;20665;-67
2023/07/03 09:10:22;;;;;;;0.70;0.70;;;21.10;85.50;;;21.64;nan;100413.53;4966809;28;20658;-67
2023/07/03 09:13:09;;;;;;;1.10;1.10;;;21.20;85.40;;;21.79;nan;100431.25;4991993;28;20644;-67
2023/07/03 09:16:03;;;;;;;1.43;1.00;;;21.30;85.70;;;21.89;nan;100429.16;4974872;28;21053;-68
2023/07/03 09:18:50;;;;;;;0.93;0.93;;;21.40;86.00;;;21.99;nan;100434.97;4996370;28;20656;-66
2023/07/03 09:21:17;;;;;;;1.30;0.97;;;21.50;85.70;;;22.01;nan;100444.41;4992989;28;20634;-67
2023/07/03 09:23:54;;;;;;;1.63;1.20;;;21.50;85.80;;;22.00;nan;100442.75;4985671;28;20982;-68
2023/07/03 09:26:37;;;;;;;1.30;1.20;;;21.50;86.10;;;22.02;nan;100439.94;4989157;28;20666;-66
2023/07/03 09:29:05;;;;;;;1.40;1.33;;;21.60;86.20;;;22.03;nan;100446.88;4992506;28;20980;-68
2023/07/03 09:31:33;;;;;;;1.80;1.10;;;21.60;86.10;;;21.98;nan;100457.22;4974991;28;20638;-67
2023/07/03 09:34:00;;;;;;;1.67;1.13;;;21.50;86.00;;;21.92;nan;100450.00;5001251;28;20987;-68
2023/07/03 09:36:37;;;;;;;4.10;1.07;;;21.50;86.30;;;21.84;nan;100460.75;4987121;28;20677;-66
2023/07/03 09:39:18;;;;;;;1.33;1.03;;;21.40;86.60;;;21.73;nan;100454.06;4989237;28;21022;-67
2023/07/03 09:41:45;;;;;;;1.50;1.40;;;21.30;87.10;;;21.68;nan;100463.63;4974327;28;20681;-67
2023/07/03 09:44:19;;;;;;;1.13;0.70;;;21.20;87.50;;;21.68;nan;100468.91;4991069;28;20754;-64
2023/07/03 09:46:47;;;;;;;1.13;0.93;;;21.20;87.30;;;21.71;nan;100468.53;4990164;28;20673;-66
2023/07/03 09:49:22;;;;;;;3.90;1.20;;;21.30;87.60;;;21.78;nan;100461.47;4975395;28;20623;-68
2023/07/03 09:51:52;;;;;;;1.33;1.00;;;21.30;87.70;;;21.85;nan;100465.06;4980475;28;20621;-65
2023/07/03 09:54:22;;;;;;;2.07;1.30;;;21.40;87.60;;;21.89;nan;100455.72;4986050;28;20642;-65
2023/07/03 09:56:49;;;;;;;1.30;1.20;;;21.40;87.80;;;21.92;nan;100457.97;4988443;28;20673;-66
2023/07/03 09:59:20;;;;;;;0.87;0.87;;;21.50;88.10;;;22.01;nan;100462.19;4990886;28;20666;-66
2023/07/03 10:01:48;;;;;;;1.97;1.60;;;21.50;89.20;;;22.04;nan;100459.16;4988090;28;20635;-68
2023/07/03 10:04:18;;;;;;;1.57;0.97;;;21.60;88.40;;;22.08;nan;100468.41;4989465;28;20679;-66
2023/07/03 10:06:58;;;;;;;1.20;1.00;;;21.60;88.90;;;22.18;nan;100456.44;4990143;28;20734;-67
2023/07/03 10:09:31;;;;;;;0.83;0.83;;;21.70;88.80;;;22.34;nan;100448.22;4987950;28;20642;-68
2023/07/03 10:12:10;;;;;;;1.83;1.10;;;21.80;88.80;;;22.78;nan;100453.34;4989603;28;21186;-68
2023/07/03 10:14:40;;;;;;;1.57;0.80;;;22.20;88.80;;;23.24;nan;100452.78;4990175;28;20598;-66
2023/07/03 10:17:12;;;;;;;0.80;0.80;;;22.70;87.60;;;23.48;nan;100445.19;4994990;28;20665;-66
2023/07/03 10:19:47;;;;;;;0.90;0.70;;;22.90;86.70;;;23.62;nan;100448.72;4980767;28;20711;-65
2023/07/03 10:22:16;;;;;;;1.97;1.27;;;23.10;86.40;;;23.75;nan;100440.78;4981475;28;21235;-65
2023/07/03 10:24:45;;;;;;;2.20;1.07;;;23.20;85.70;;;23.79;nan;100436.69;4974734;28;20635;-65
2023/07/03 10:27:14;;;;;;;1.17;0.77;;;23.30;85.10;;;23.80;nan;100438.34;4980945;28;20665;-65
2023/07/03 10:29:49;;;;;;;1.47;1.37;;;23.30;84.90;;;23.75;nan;100441.59;4986367;28;20639;-65
2023/07/03 10:32:18;;;;;;;3.20;1.37;;;23.30;84.50;;;23.74;nan;100439.16;4976841;28;20695;-65
2023/07/03 10:34:51;;;;;;;1.80;1.40;;;23.30;84.60;;;23.73;nan;100448.97;4984159;28;20717;-65
2023/07/03 10:37:20;;;;;;;1.70;1.33;;;23.30;84.50;;;23.71;nan;100450.19;4988594;28;20693;-68